Sterling, Kansas
Current Conditions -  °F | °C
As of 3:52 PM on Wednesday 22 Oct 2014 (Local Time) from KHUT Reporting Station
Few Clouds Few Clouds  
Wind Chill: 77°   Ceiling: Unl
Heat Index: 78°   Visibility: 10mi
Dew Point: 49°   Wind: 21mph
Humidity: 37%   Direction: 190°S
Pressure: 30.03"   Gusts: 28mph
Location:  38.21°N, 98.21°W
Report Text: KHUT 222052Z 19018G24KT 10SM FEW060 25/09 A3003 RMK AO2 PK WND 17028/2015 SLP153 T02500094 56018
Loading
Personal Weather Stations






























Interactive Weather Map
Tropical Storm Tracking
New forecast layout! Learn more

10-Day Weather Forecast

Advertisements
Track Severe Weather on mobile